Time;durP1;ratioP1;P1;durP2;ratioP2;P2;SDS_P1;SDS_P2;PMS_P1;PMS_P2;Temp;Humidity;BMP_temperature;BMP_pressure;BME280_temperature;BME280_humidity;BME280_pressure;Samples;Min_cycle;Max_cycle;Signal;HPM_P1;HPM_P2
2021/04/26 00:01:25;;;;;;;8.35;3.65;;;2.20;92.40;;;;;;5067197;28;20729;-77
2021/04/26 00:04:06;;;;;;;6.07;3.72;;;2.10;92.80;;;;;;5033127;27;20372;-78
2021/04/26 00:06:50;;;;;;;6.25;4.35;;;2.00;92.70;;;;;;5114086;27;20333;-78
2021/04/26 00:09:35;;;;;;;3.95;3.60;;;2.00;93.50;;;;;;5129231;27;20332;-76
2021/04/26 00:12:19;;;;;;;6.03;3.80;;;2.00;94.00;;;;;;5129923;27;20711;-76
2021/04/26 00:15:10;;;;;;;5.78;3.40;;;1.80;94.00;;;;;;5059411;27;20751;-76
2021/04/26 00:17:52;;;;;;;5.22;4.03;;;1.80;93.90;;;;;;5067998;28;20892;-78
2021/04/26 00:20:36;;;;;;;6.53;4.15;;;1.80;93.50;;;;;;5045630;27;20409;-76
2021/04/26 00:23:21;;;;;;;8.48;5.00;;;1.80;93.50;;;;;;5097696;27;20348;-76
2021/04/26 00:26:07;;;;;;;5.50;4.95;;;1.80;93.70;;;;;;5068195;28;20387;-77
2021/04/26 00:28:52;;;;;;;7.35;4.28;;;1.90;93.10;;;;;;5074717;27;20357;-78
2021/04/26 00:31:37;;;;;;;5.38;4.88;;;1.90;93.10;;;;;;5045079;27;20364;-76
2021/04/26 00:34:21;;;;;;;5.80;3.85;;;2.00;92.40;;;;;;5170550;27;20650;-76
2021/04/26 00:37:05;;;;;;;8.77;3.78;;;1.70;92.90;;;;;;5088731;27;20386;-78
2021/04/26 00:39:49;;;;;;;6.00;4.32;;;1.70;93.10;;;;;;5040282;27;20874;-76
2021/04/26 00:42:35;;;;;;;4.78;4.13;;;2.00;92.20;;;;;;5068198;28;20361;-76
2021/04/26 00:45:22;;;;;;;9.23;7.25;;;2.20;91.90;;;;;;5067774;27;20471;-76
2021/04/26 00:48:06;;;;;;;7.55;5.15;;;2.30;91.50;;;;;;5032050;27;20521;-79
2021/04/26 00:50:49;;;;;;;6.65;5.10;;;2.30;91.40;;;;;;5064898;27;20508;-76
2021/04/26 00:53:33;;;;;;;11.25;4.95;;;2.50;91.20;;;;;;5068185;28;20460;-78
2021/04/26 00:56:16;;;;;;;5.50;4.30;;;2.90;90.70;;;;;;5102437;27;21112;-76
2021/04/26 00:59:01;;;;;;;4.90;3.70;;;3.20;90.30;;;;;;5060246;27;20483;-76
2021/04/26 01:01:44;;;;;;;5.15;4.65;;;3.40;89.80;;;;;;5128778;27;20328;-76
2021/04/26 01:04:27;;;;;;;6.68;4.70;;;3.70;88.90;;;;;;5085083;27;20718;-76
2021/04/26 01:07:08;;;;;;;6.53;5.68;;;3.90;87.80;;;;;;5099912;27;815326;-76
2021/04/26 01:09:51;;;;;;;6.93;5.15;;;4.10;87.10;;;;;;5067607;28;20916;-77
2021/04/26 01:12:40;;;;;;;6.38;4.88;;;4.30;86.50;;;;;;5022396;27;20361;-76
2021/04/26 01:15:30;;;;;;;10.57;6.88;;;4.30;85.70;;;;;;5051552;27;20407;-76
2021/04/26 01:18:28;;;;;;;8.10;6.45;;;4.40;85.40;;;;;;5108061;27;20348;-77
2021/04/26 01:21:59;;;;;;;8.40;5.53;;;4.40;85.20;;;;;;5008952;27;20364;-77
2021/04/26 01:25:00;;;;;;;9.07;6.20;;;4.50;84.10;;;;;;5019312;27;20408;-79
2021/04/26 01:28:20;;;;;;;8.25;7.40;;;4.60;83.50;;;;;;5071233;28;20473;-77
2021/04/26 01:31:16;;;;;;;9.95;6.25;;;4.60;84.10;;;;;;5099189;27;20343;-76
2021/04/26 01:34:03;;;;;;;6.22;5.63;;;4.60;84.20;;;;;;5067726;28;20391;-77
2021/04/26 01:37:07;;;;;;;7.82;7.05;;;4.40;85.20;;;;;;5027405;28;20431;-77
2021/04/26 01:39:52;;;;;;;8.27;6.43;;;4.40;86.00;;;;;;5039774;27;20935;-77
2021/04/26 01:42:37;;;;;;;9.05;4.80;;;4.30;86.70;;;;;;5068216;28;20392;-77
2021/04/26 01:45:22;;;;;;;6.05;4.93;;;4.20;87.10;;;;;;5067948;28;20349;-77
2021/04/26 01:48:06;;;;;;;6.22;3.78;;;4.10;87.60;;;;;;5137507;27;20399;-77
2021/04/26 01:50:55;;;;;;;7.97;7.15;;;4.00;87.90;;;;;;5063904;27;20457;-76
2021/04/26 01:53:43;;;;;;;11.65;6.25;;;4.00;87.90;;;;;;5068269;28;20471;-77
2021/04/26 01:56:27;;;;;;;9.52;5.82;;;4.00;88.40;;;;;;5099983;27;20802;-77
2021/04/26 01:59:13;;;;;;;6.80;5.60;;;3.90;88.50;;;;;;5055748;27;20457;-77
2021/04/26 02:01:56;;;;;;;9.02;6.28;;;3.90;88.50;;;;;;5124621;27;808278;-76
2021/04/26 02:04:41;;;;;;;7.97;7.13;;;4.00;88.40;;;;;;5018010;28;20875;-77
2021/04/26 02:07:47;;;;;;;7.70;6.35;;;3.90;88.50;;;;;;5126413;27;20352;-77
2021/04/26 02:10:37;;;;;;;6.85;4.88;;;3.90;88.40;;;;;;5067548;28;20399;-77
2021/04/26 02:13:26;;;;;;;8.73;5.72;;;4.00;88.00;;;;;;5008435;27;20364;-77
2021/04/26 02:16:14;;;;;;;4.47;4.07;;;4.00;87.30;;;;;;5029524;27;20407;-79
2021/04/26 02:18:56;;;;;;;6.90;5.63;;;4.10;86.90;;;;;;5121206;27;20389;-76
2021/04/26 02:21:42;;;;;;;9.75;7.05;;;4.00;87.60;;;;;;5102352;27;803126;-78
2021/04/26 02:24:24;;;;;;;6.35;4.45;;;3.90;87.70;;;;;;5025747;27;20364;-77
2021/04/26 02:27:07;;;;;;;5.40;4.75;;;4.00;87.00;;;;;;5159823;27;20335;-76
2021/04/26 02:29:52;;;;;;;12.73;7.68;;;3.90;87.40;;;;;;5087770;28;20402;-77
2021/04/26 02:33:04;;;;;;;6.55;4.70;;;3.90;86.90;;;;;;5097005;27;20340;-77
2021/04/26 02:36:04;;;;;;;8.50;4.97;;;3.90;87.10;;;;;;5096666;27;20718;-76
2021/04/26 02:41:14;;;;;;;8.02;5.88;;;3.90;87.60;;;;;;5047861;27;20354;-78
2021/04/26 02:44:10;;;;;;;6.13;3.42;;;3.80;87.00;;;;;;5037461;27;20403;-76
2021/04/26 02:47:03;;;;;;;6.00;5.35;;;3.80;87.20;;;;;;5061546;27;20455;-77
2021/04/26 02:49:51;;;;;;;6.43;5.55;;;3.70;87.30;;;;;;5108063;27;20347;-77
2021/04/26 02:52:35;;;;;;;5.75;5.13;;;3.70;87.20;;;;;;5097856;27;21095;-77
2021/04/26 02:55:20;;;;;;;9.18;6.63;;;3.70;87.10;;;;;;5094527;27;20350;-76
2021/04/26 02:58:04;;;;;;;9.07;5.90;;;3.60;88.40;;;;;;5116860;27;20313;-77
2021/04/26 03:00:48;;;;;;;10.27;5.10;;;3.50;87.80;;;;;;5016088;27;20982;-77
2021/04/26 03:03:57;;;;;;;7.68;5.85;;;3.50;88.10;;;;;;5057457;27;20128;-76
2021/04/26 03:07:01;;;;;;;8.82;8.00;;;3.40;88.80;;;;;;5061625;27;20388;-79
2021/04/26 03:09:51;;;;;;;6.07;4.28;;;3.30;88.80;;;;;;5067870;28;20346;-76
2021/04/26 03:12:38;;;;;;;8.95;6.03;;;3.20;89.10;;;;;;5022541;27;20372;-77
2021/04/26 03:15:29;;;;;;;7.85;5.53;;;3.20;89.50;;;;;;5085436;27;808354;-77
2021/04/26 03:18:16;;;;;;;10.70;7.03;;;3.10;89.50;;;;;;5067665;28;21245;-76
2021/04/26 03:21:00;;;;;;;14.35;7.70;;;3.10;89.80;;;;;;5011786;28;20365;-79
2021/04/26 03:23:46;;;;;;;10.38;6.13;;;3.00;90.10;;;;;;5131228;27;20546;-77
2021/04/26 03:26:31;;;;;;;7.97;7.00;;;3.00;90.10;;;;;;5108538;27;20924;-80
2021/04/26 03:29:20;;;;;;;5.85;5.35;;;3.00;90.10;;;;;;5028766;27;20355;-79
2021/04/26 03:32:03;;;;;;;8.13;7.43;;;2.90;90.10;;;;;;5031138;27;20379;-78
2021/04/26 03:34:56;;;;;;;6.53;5.72;;;2.90;90.40;;;;;;5124530;27;20310;-78
2021/04/26 03:40:02;;;;;;;11.70;9.70;;;2.80;90.40;;;;;;5089302;27;834032;-77
2021/04/26 03:42:54;;;;;;;7.22;6.60;;;2.80;90.30;;;;;;5105273;27;20315;-78
2021/04/26 03:45:40;;;;;;;8.65;6.80;;;2.80;90.30;;;;;;5128666;27;20331;-77
2021/04/26 03:48:31;;;;;;;9.07;5.30;;;2.70;90.70;;;;;;5089186;27;20056;-76
2021/04/26 03:51:30;;;;;;;7.43;6.25;;;2.70;90.70;;;;;;5115043;27;20781;-78
2021/04/26 03:54:16;;;;;;;10.90;6.60;;;2.70;90.50;;;;;;5087923;28;20052;-78
2021/04/26 03:56:44;;;;;;;12.50;6.78;;;2.60;90.60;;;;;;5087701;28;20401;-79
2021/04/26 03:59:15;;;;;;;8.85;6.05;;;2.60;90.60;;;;;;5086326;28;20048;-79
2021/04/26 04:01:44;;;;;;;10.27;9.27;;;2.60;90.90;;;;;;5087581;28;20052;-80
2021/04/26 04:04:12;;;;;;;10.43;7.93;;;2.60;90.50;;;;;;5085872;28;20044;-79
2021/04/26 04:07:11;;;;;;;10.85;6.10;;;2.60;90.90;;;;;;5082873;28;20040;-79
2021/04/26 04:10:07;;;;;;;11.10;9.93;;;2.60;90.80;;;;;;5043401;28;20072;-76
2021/04/26 04:12:55;;;;;;;8.68;6.93;;;2.60;90.40;;;;;;5062752;28;20049;-76
2021/04/26 04:15:23;;;;;;;8.00;7.25;;;2.60;90.80;;;;;;5065022;28;20052;-75
2021/04/26 04:17:51;;;;;;;10.60;7.28;;;2.50;90.70;;;;;;5067295;28;20057;-76
2021/04/26 04:20:20;;;;;;;8.05;7.25;;;2.50;90.70;;;;;;5064906;28;20604;-73
2021/04/26 04:22:49;;;;;;;8.02;6.80;;;2.60;90.60;;;;;;5065761;28;20049;-73
2021/04/26 04:25:16;;;;;;;5.93;5.25;;;2.60;90.80;;;;;;5049319;28;20049;-73
2021/04/26 04:27:44;;;;;;;4.80;4.35;;;2.60;90.70;;;;;;5065815;28;20053;-73
2021/04/26 04:30:14;;;;;;;6.55;4.97;;;2.60;90.50;;;;;;5049243;28;20048;-72
2021/04/26 04:33:00;;;;;;;5.97;5.47;;;2.60;90.50;;;;;;5065362;28;20052;-72
2021/04/26 04:35:47;;;;;;;7.28;6.05;;;2.70;90.50;;;;;;5070948;28;20044;-72
2021/04/26 04:38:33;;;;;;;6.07;5.28;;;2.80;90.50;;;;;;5087310;28;20048;-72
2021/04/26 04:41:19;;;;;;;9.32;4.97;;;2.80;90.10;;;;;;5100494;28;20051;-72
2021/04/26 04:43:46;;;;;;;6.78;6.18;;;3.00;90.00;;;;;;5085328;28;20083;-73
2021/04/26 04:46:14;;;;;;;8.07;5.90;;;3.00;90.00;;;;;;5086414;28;20044;-72
2021/04/26 04:48:52;;;;;;;4.35;3.35;;;3.10;90.10;;;;;;5084857;28;20524;-72
2021/04/26 04:51:24;;;;;;;5.43;4.68;;;3.20;89.20;;;;;;5084825;28;20059;-73
2021/04/26 04:53:56;;;;;;;4.68;4.28;;;3.30;89.50;;;;;;5087013;28;20052;-73
2021/04/26 04:56:29;;;;;;;8.55;6.38;;;3.50;88.50;;;;;;5084259;28;20040;-72
2021/04/26 04:58:56;;;;;;;8.20;6.78;;;3.60;87.50;;;;;;5065976;28;20383;-78
2021/04/26 05:01:25;;;;;;;7.20;6.47;;;3.70;87.50;;;;;;5059026;28;20071;-77
2021/04/26 05:04:12;;;;;;;7.60;5.00;;;3.80;87.10;;;;;;5052719;28;20052;-78
2021/04/26 05:06:42;;;;;;;13.75;5.80;;;3.70;86.80;;;;;;5062757;28;20067;-78
2021/04/26 05:09:28;;;;;;;8.88;5.80;;;3.80;87.30;;;;;;5070513;28;20040;-78
2021/04/26 05:12:35;;;;;;;7.00;6.32;;;3.90;87.60;;;;;;5014689;28;20046;-78
2021/04/26 05:15:21;;;;;;;13.00;8.05;;;4.10;86.40;;;;;;5014566;28;20048;-78
2021/04/26 05:17:48;;;;;;;7.63;6.57;;;4.40;87.10;;;;;;5056532;28;20067;-78
2021/04/26 05:20:15;;;;;;;6.75;4.65;;;4.80;85.00;;;;;;5059556;28;20406;-78
2021/04/26 05:22:43;;;;;;;10.65;6.82;;;5.00;82.90;;;;;;5051768;28;20091;-78
2021/04/26 05:25:11;;;;;;;10.15;6.20;;;5.00;82.80;;;;;;5070808;28;20115;-78
2021/04/26 05:27:41;;;;;;;15.02;7.97;;;4.90;83.40;;;;;;5071289;28;20107;-78
2021/04/26 05:30:11;;;;;;;8.10;7.18;;;5.10;83.30;;;;;;5070900;28;20052;-82
2021/04/26 05:32:38;;;;;;;6.70;6.03;;;5.30;80.70;;;;;;5054586;28;20516;-80
2021/04/26 05:35:14;;;;;;;10.25;5.00;;;5.30;81.20;;;;;;5077707;28;20040;-81
2021/04/26 05:37:46;;;;;;;8.68;6.68;;;5.50;80.60;;;;;;5075781;28;20400;-79
2021/04/26 05:40:15;;;;;;;8.43;7.30;;;6.00;78.90;;;;;;5089849;28;20059;-86
2021/04/26 05:42:43;;;;;;;4.68;4.20;;;5.90;77.20;;;;;;5076640;28;20479;-85
2021/04/26 05:45:12;;;;;;;8.07;4.88;;;5.80;78.60;;;;;;5070155;28;20611;-84
2021/04/26 05:48:02;;;;;;;13.98;5.68;;;6.00;78.10;;;;;;5085712;28;20056;-86
2021/04/26 05:50:35;;;;;;;6.32;5.60;;;6.20;76.40;;;;;;5088972;28;20048;-87
2021/04/26 05:53:03;;;;;;;12.63;5.15;;;6.30;76.00;;;;;;5054246;28;20052;-84
2021/04/26 05:55:33;;;;;;;9.23;4.43;;;6.10;76.40;;;;;;5070360;28;20040;-86
2021/04/26 05:58:04;;;;;;;7.75;5.88;;;6.20;76.70;;;;;;5071149;28;20040;-85
2021/04/26 06:00:32;;;;;;;6.80;5.50;;;6.80;75.70;;;;;;5069845;28;20083;-88
2021/04/26 06:03:02;;;;;;;7.10;5.25;;;7.30;72.10;;;;;;5070132;28;20478;-87
2021/04/26 06:05:39;;;;;;;8.38;5.47;;;7.60;69.70;;;;;;5081072;28;20064;-87
2021/04/26 06:08:13;;;;;;;5.65;4.05;;;7.50;70.00;;;;;;5069084;28;20055;-85
2021/04/26 06:10:40;;;;;;;8.57;5.05;;;7.60;70.40;;;;;;5066945;28;20044;-85
2021/04/26 06:13:08;;;;;;;6.35;4.68;;;7.90;70.60;;;;;;5079115;28;20032;-87
2021/04/26 06:15:35;;;;;;;8.77;8.05;;;8.30;67.40;;;;;;5062028;28;20040;-87
2021/04/26 06:18:11;;;;;;;6.10;4.78;;;8.30;65.70;;;;;;5089581;28;20059;-87
2021/04/26 06:20:40;;;;;;;9.07;6.15;;;8.20;67.20;;;;;;5057675;28;20469;-85
2021/04/26 06:23:08;;;;;;;5.82;5.35;;;8.40;68.30;;;;;;5079999;28;20047;-84
2021/04/26 06:25:37;;;;;;;10.65;5.95;;;9.20;64.00;;;;;;5078917;28;20043;-85
2021/04/26 06:28:06;;;;;;;8.95;6.60;;;9.30;61.70;;;;;;5061087;28;20768;-84
2021/04/26 06:30:35;;;;;;;6.78;5.85;;;9.60;60.70;;;;;;5078603;28;20052;-84
2021/04/26 06:33:03;;;;;;;5.70;5.03;;;9.80;61.30;;;;;;5062517;28;20040;-85
2021/04/26 06:35:31;;;;;;;5.93;5.30;;;9.80;61.00;;;;;;5060879;28;20045;-85
2021/04/26 06:37:59;;;;;;;7.63;4.85;;;9.30;62.70;;;;;;5079178;28;20036;-86
2021/04/26 06:40:27;;;;;;;8.35;3.78;;;9.60;63.10;;;;;;5076963;28;20040;-84
2021/04/26 06:42:55;;;;;;;9.65;5.38;;;10.10;59.50;;;;;;5089090;28;20059;-84
2021/04/26 06:45:23;;;;;;;13.73;8.73;;;10.20;58.70;;;;;;5086158;28;20587;-82
2021/04/26 06:47:51;;;;;;;6.97;6.28;;;10.50;58.40;;;;;;5074665;28;20053;-82
2021/04/26 06:50:20;;;;;;;5.95;4.97;;;10.80;55.70;;;;;;5086920;28;20052;-84
2021/04/26 06:52:53;;;;;;;6.95;4.88;;;10.30;58.20;;;;;;5071575;28;20056;-85
2021/04/26 06:55:22;;;;;;;7.80;5.07;;;10.40;58.20;;;;;;5067665;28;20048;-86
2021/04/26 06:57:52;;;;;;;7.22;4.68;;;11.00;56.90;;;;;;5067949;28;20044;-84
2021/04/26 07:00:22;;;;;;;6.40;4.63;;;11.10;55.00;;;;;;5068264;28;20055;-87
2021/04/26 07:02:51;;;;;;;4.88;4.43;;;10.80;57.70;;;;;;5067147;28;20060;-83
2021/04/26 07:05:24;;;;;;;5.70;4.80;;;11.10;55.30;;;;;;5068916;28;20450;-83
2021/04/26 07:07:54;;;;;;;;;;;12.40;51.20;;;;;;5068647;28;20052;-83
2021/04/26 07:10:25;;;;;;;5.55;4.93;;;13.00;47.80;;;;;;5069890;28;19920;-84
2021/04/26 07:12:55;;;;;;;6.57;3.13;;;13.30;48.20;;;;;;5068504;28;20064;-82
2021/04/26 07:15:23;;;;;;;5.13;4.38;;;14.40;44.20;;;;;;5069360;28;20049;-83
2021/04/26 07:17:51;;;;;;;5.53;4.88;;;14.70;43.10;;;;;;5070000;28;20044;-83
2021/04/26 07:20:19;;;;;;;11.32;5.07;;;15.40;43.40;;;;;;5067667;28;20047;-84
2021/04/26 07:22:51;;;;;;;5.72;4.90;;;16.20;40.10;;;;;;5067729;28;20051;-83
2021/04/26 07:25:18;;;;;;;6.57;4.68;;;15.80;39.00;;;;;;5069559;28;20060;-83
2021/04/26 07:27:45;;;;;;;7.63;5.88;;;15.60;39.20;;;;;;5069718;28;20045;-82
2021/04/26 07:30:13;;;;;;;3.65;3.25;;;15.80;40.40;;;;;;5069419;28;20067;-81
2021/04/26 07:32:41;;;;;;;5.47;4.72;;;16.00;38.90;;;;;;5062498;28;20497;-82
2021/04/26 07:35:11;;;;;;;16.63;6.10;;;15.30;39.90;;;;;;5060382;28;20043;-81
2021/04/26 07:37:42;;;;;;;7.38;4.55;;;15.50;39.80;;;;;;5063123;28;20053;-82
2021/04/26 07:40:12;;;;;;;6.45;5.20;;;16.50;39.00;;;;;;5049163;28;20049;-82
2021/04/26 07:42:41;;;;;;;4.97;4.47;;;16.70;36.90;;;;;;5065134;28;20061;-81
2021/04/26 07:45:10;;;;;;;5.90;3.97;;;17.70;38.80;;;;;;5049493;28;20041;-82
2021/04/26 07:47:38;;;;;;;9.93;5.25;;;18.60;34.00;;;;;;5076863;28;20493;-82
2021/04/26 07:50:07;;;;;;;3.80;3.35;;;18.20;34.80;;;;;;5069586;28;20060;-81
2021/04/26 07:52:35;;;;;;;8.25;5.38;;;19.00;32.90;;;;;;5069909;28;20051;-83
2021/04/26 07:55:03;;;;;;;9.77;4.38;;;18.80;32.20;;;;;;5069568;28;20045;-81
2021/04/26 07:57:32;;;;;;;6.07;5.38;;;17.20;34.90;;;;;;5070437;28;20048;-80
2021/04/26 08:00:30;;;;;;;4.72;4.20;;;16.80;36.10;;;;;;5025555;28;20041;-80
2021/04/26 08:03:21;;;;;;;4.60;4.13;;;17.40;35.60;;;;;;5033482;28;20044;-80
2021/04/26 08:06:09;;;;;;;4.53;4.05;;;17.50;34.90;;;;;;5034854;28;20064;-82
2021/04/26 08:08:56;;;;;;;6.85;5.70;;;18.80;33.10;;;;;;5004706;28;20052;-84
2021/04/26 08:11:44;;;;;;;7.38;4.60;;;18.70;31.80;;;;;;5035667;28;20036;-81
2021/04/26 08:14:32;;;;;;;23.30;5.57;;;18.30;35.90;;;;;;5023946;28;20401;-82
2021/04/26 08:17:22;;;;;;;4.88;4.03;;;18.30;33.50;;;;;;5027081;28;20055;-81
2021/04/26 08:20:11;;;;;;;7.47;4.80;;;18.30;35.60;;;;;;5023467;28;20036;-82
2021/04/26 08:22:58;;;;;;;4.03;3.65;;;18.30;34.70;;;;;;5048051;28;20064;-83
2021/04/26 08:25:46;;;;;;;4.68;3.97;;;19.80;32.10;;;;;;5010570;28;20052;-83
2021/04/26 08:28:34;;;;;;;7.22;6.50;;;20.70;29.80;;;;;;5038030;28;20044;-83
2021/04/26 08:31:22;;;;;;;5.63;4.28;;;20.80;29.00;;;;;;5018596;28;20137;-83
2021/04/26 08:34:09;;;;;;;4.50;4.07;;;20.40;30.00;;;;;;5024412;28;20691;-82
2021/04/26 08:36:57;;;;;;;6.97;4.75;;;21.10;29.60;;;;;;5016656;28;20496;-81
2021/04/26 08:39:44;;;;;;;10.95;4.43;;;21.20;30.60;;;;;;5023180;28;20405;-82
2021/04/26 08:42:34;;;;;;;4.25;3.60;;;21.60;28.40;;;;;;5049366;28;20051;-81
2021/04/26 08:45:21;;;;;;;6.05;4.15;;;20.10;30.60;;;;;;4996967;28;20401;-81
2021/04/26 08:48:09;;;;;;;6.65;4.75;;;17.40;36.60;;;;;;5018182;28;20508;-81
2021/04/26 08:50:56;;;;;;;5.90;4.28;;;17.50;35.20;;;;;;4991743;28;20075;-82
2021/04/26 08:53:44;;;;;;;5.53;4.53;;;17.80;35.20;;;;;;5005468;28;20583;-82
2021/04/26 08:56:32;;;;;;;9.05;5.70;;;17.80;33.70;;;;;;5027282;28;20047;-81
2021/04/26 08:59:21;;;;;;;11.23;5.30;;;16.50;37.70;;;;;;5018907;28;20071;-81
2021/04/26 09:02:16;;;;;;;4.38;3.78;;;15.60;43.00;;;;;;5051360;28;20052;-78
2021/04/26 09:04:55;;;;;;;10.10;6.13;;;14.60;42.20;;;;;;5071322;28;20044;-79
2021/04/26 09:07:23;;;;;;;14.32;4.55;;;13.30;44.00;;;;;;5080713;28;20048;-81
2021/04/26 09:09:52;;;;;;;3.88;3.25;;;13.00;46.00;;;;;;5082816;28;20045;-80
2021/04/26 09:12:24;;;;;;;7.95;4.28;;;12.80;46.70;;;;;;5080046;28;20040;-82
2021/04/26 09:15:04;;;;;;;6.03;4.35;;;12.80;45.30;;;;;;5061211;28;20055;-81
2021/04/26 09:17:33;;;;;;;8.02;4.50;;;12.80;46.40;;;;;;5079051;28;20615;-80
2021/04/26 09:20:19;;;;;;;7.32;4.55;;;12.80;46.30;;;;;;5079817;28;20047;-84
2021/04/26 09:22:51;;;;;;;6.60;5.03;;;12.90;47.20;;;;;;5062116;28;20401;-82
2021/04/26 09:25:35;;;;;;;5.18;4.20;;;12.80;45.80;;;;;;5078717;28;20055;-87
2021/04/26 09:28:04;;;;;;;8.10;4.38;;;12.10;48.10;;;;;;5080414;28;20033;-89
2021/04/26 09:30:46;;;;;;;5.50;4.60;;;12.20;50.20;;;;;;5064031;28;20040;-89
2021/04/26 09:33:21;;;;;;;5.60;5.05;;;12.70;47.50;;;;;;5080190;28;20048;-82
2021/04/26 09:36:03;;;;;;;8.63;5.28;;;12.40;47.00;;;;;;5080124;28;20051;-82
2021/04/26 09:38:44;;;;;;;5.60;4.65;;;12.40;45.70;;;;;;5081507;28;20055;-85
2021/04/26 09:41:20;;;;;;;11.73;5.60;;;12.50;49.70;;;;;;5081813;28;20055;-77
2021/04/26 09:44:01;;;;;;;13.90;4.68;;;12.50;52.20;;;;;;5080722;28;20406;-77
2021/04/26 09:46:46;;;;;;;4.78;4.00;;;12.40;48.40;;;;;;5083277;28;20056;-80
2021/04/26 09:49:17;;;;;;;6.30;4.22;;;12.20;46.70;;;;;;5078891;28;20043;-80
2021/04/26 09:51:55;;;;;;;13.63;6.03;;;12.10;53.60;;;;;;5082280;28;20052;-79
2021/04/26 09:54:43;;;;;;;6.55;4.60;;;12.30;50.00;;;;;;5079401;28;20056;-80
2021/04/26 09:57:11;;;;;;;5.57;4.97;;;12.40;49.00;;;;;;5080050;28;20048;-80
2021/04/26 09:59:39;;;;;;;5.07;4.57;;;12.70;51.10;;;;;;5079372;28;20501;-81
2021/04/26 10:02:08;;;;;;;4.95;4.47;;;12.90;48.50;;;;;;5084099;28;20040;-82
2021/04/26 10:04:37;;;;;;;8.15;4.72;;;13.20;50.00;;;;;;5078558;28;20055;-82
2021/04/26 10:07:06;;;;;;;9.57;4.65;;;13.00;48.00;;;;;;5082719;28;20041;-81
2021/04/26 10:09:35;;;;;;;4.57;4.10;;;12.90;47.60;;;;;;5084534;28;20481;-82
2021/04/26 10:12:02;;;;;;;6.13;4.70;;;12.90;45.70;;;;;;5084028;28;20041;-77
2021/04/26 10:14:30;;;;;;;5.30;4.80;;;12.50;48.20;;;;;;5080676;28;20052;-79
2021/04/26 10:17:01;;;;;;;4.97;4.47;;;12.50;44.20;;;;;;5076298;28;20123;-81
2021/04/26 10:19:31;;;;;;;7.60;4.28;;;12.50;44.80;;;;;;5082900;28;20457;-79
2021/04/26 10:22:00;;;;;;;4.53;3.75;;;12.60;46.00;;;;;;5078124;28;20059;-79
2021/04/26 10:24:34;;;;;;;6.53;5.07;;;12.60;45.80;;;;;;5080447;28;20044;-80
2021/04/26 10:27:07;;;;;;;9.38;5.50;;;12.70;46.00;;;;;;5082941;28;20392;-80
2021/04/26 10:29:37;;;;;;;5.07;3.78;;;12.70;44.10;;;;;;5086939;28;20044;-79
2021/04/26 10:32:11;;;;;;;4.30;3.97;;;12.80;43.10;;;;;;5079728;28;20040;-81
2021/04/26 10:34:39;;;;;;;6.65;4.22;;;12.70;47.40;;;;;;5082911;28;20044;-79
2021/04/26 10:37:16;;;;;;;4.38;3.90;;;12.70;46.10;;;;;;5080502;28;20387;-79
2021/04/26 10:39:59;;;;;;;5.13;4.40;;;12.70;47.20;;;;;;5073838;28;20037;-81
2021/04/26 10:42:47;;;;;;;5.43;4.32;;;13.00;48.60;;;;;;5082781;28;20086;-79
2021/04/26 10:45:21;;;;;;;4.15;3.75;;;13.10;44.50;;;;;;5075320;28;20056;-81
2021/04/26 10:47:58;;;;;;;4.07;3.75;;;13.00;43.30;;;;;;5094656;28;20052;-78
2021/04/26 10:50:28;;;;;;;6.30;4.53;;;13.30;43.70;;;;;;5080252;28;20048;-78
2021/04/26 10:53:01;;;;;;;9.20;5.22;;;12.80;41.10;;;;;;5077874;28;20059;-79
2021/04/26 10:55:39;;;;;;;4.78;3.95;;;12.60;44.80;;;;;;5079520;28;20067;-81
2021/04/26 10:58:20;;;;;;;4.63;4.32;;;12.50;44.40;;;;;;5083869;28;20044;-81
2021/04/26 11:00:49;;;;;;;4.68;4.28;;;12.60;39.50;;;;;;5076778;28;20049;-79
2021/04/26 11:03:17;;;;;;;4.50;3.83;;;12.30;37.30;;;;;;5079829;28;20094;-80
2021/04/26 11:05:50;;;;;;;13.50;3.92;;;12.40;41.90;;;;;;5087043;28;20044;-81
2021/04/26 11:08:42;;;;;;;5.13;3.80;;;12.50;41.40;;;;;;5078681;28;20520;-80
2021/04/26 11:11:16;;;;;;;4.80;4.15;;;12.40;41.40;;;;;;5081905;28;20040;-81
2021/04/26 11:13:47;;;;;;;5.00;4.10;;;12.40;48.40;;;;;;5061337;28;20044;-79
2021/04/26 11:16:17;;;;;;;5.50;3.95;;;12.50;44.00;;;;;;5044524;28;20047;-79
2021/04/26 11:18:54;;;;;;;4.78;4.38;;;12.50;43.60;;;;;;5080190;28;20397;-77
2021/04/26 11:21:43;;;;;;;4.90;3.53;;;12.50;40.60;;;;;;5085549;28;20056;-79
2021/04/26 11:24:27;;;;;;;6.15;3.63;;;12.80;39.70;;;;;;5076826;28;20131;-79
2021/04/26 11:27:13;;;;;;;8.77;7.00;;;12.70;43.60;;;;;;5085358;28;20477;-78
2021/04/26 11:29:48;;;;;;;4.60;4.18;;;12.80;41.60;;;;;;5087470;28;20044;-78
2021/04/26 11:32:16;;;;;;;7.40;5.43;;;12.60;41.20;;;;;;5081155;28;20059;-80
2021/04/26 11:34:47;;;;;;;5.53;4.43;;;12.70;49.00;;;;;;5075482;28;20523;-80
2021/04/26 11:37:48;;;;;;;5.78;4.32;;;12.80;38.20;;;;;;5075947;28;20067;-79
2021/04/26 11:40:21;;;;;;;4.30;3.60;;;12.80;40.80;;;;;;5048241;28;20051;-80
2021/04/26 11:42:49;;;;;;;26.40;4.70;;;13.00;39.90;;;;;;5078416;28;20386;-82
2021/04/26 11:45:21;;;;;;;7.85;3.70;;;12.90;41.30;;;;;;5084304;28;20409;-82
2021/04/26 11:47:49;;;;;;;4.65;4.10;;;12.70;38.20;;;;;;5078744;28;20068;-84
2021/04/26 11:50:17;;;;;;;4.70;4.30;;;12.80;50.20;;;;;;5081537;28;20055;-85
2021/04/26 11:52:44;;;;;;;4.88;3.47;;;13.30;43.00;;;;;;5076118;28;20060;-80
2021/04/26 11:55:17;;;;;;;7.38;5.45;;;13.60;40.30;;;;;;5084497;28;20044;-80
2021/04/26 11:57:58;;;;;;;4.72;4.05;;;13.50;40.40;;;;;;5080253;28;20050;-79
2021/04/26 12:00:28;;;;;;;3.80;2.92;;;13.40;38.90;;;;;;5059877;28;20378;-81
2021/04/26 12:03:09;;;;;;;7.22;4.95;;;13.20;39.20;;;;;;5067290;28;20477;-81
2021/04/26 12:05:37;;;;;;;5.00;4.70;;;13.30;38.50;;;;;;5085992;28;20044;-80
2021/04/26 12:08:05;;;;;;;4.70;3.90;;;13.40;39.40;;;;;;5078618;28;20060;-84
2021/04/26 12:10:40;;;;;;;8.75;4.82;;;13.50;38.80;;;;;;5063768;28;20044;-85
2021/04/26 12:13:09;;;;;;;5.47;4.90;;;13.50;43.60;;;;;;5057514;28;20389;-87
2021/04/26 12:15:38;;;;;;;16.50;5.88;;;13.60;45.50;;;;;;5084598;28;20040;-81
2021/04/26 12:18:08;;;;;;;6.05;5.45;;;13.70;43.00;;;;;;5083803;28;20052;-86
2021/04/26 12:20:39;;;;;;;7.07;5.50;;;13.40;41.20;;;;;;5063018;28;20044;-82
2021/04/26 12:23:16;;;;;;;5.55;5.05;;;13.60;45.10;;;;;;5085214;28;20048;-83
2021/04/26 12:25:45;;;;;;;7.15;4.28;;;13.80;42.80;;;;;;5081795;28;20077;-82
2021/04/26 12:28:18;;;;;;;8.70;5.05;;;13.90;44.70;;;;;;5083442;28;20059;-86
2021/04/26 12:30:48;;;;;;;11.35;4.60;;;14.10;45.30;;;;;;5083607;28;20044;-86
2021/04/26 12:33:26;;;;;;;7.55;4.78;;;14.10;42.20;;;;;;5088557;28;20045;-85
2021/04/26 12:35:54;;;;;;;9.27;5.85;;;14.10;42.70;;;;;;5081012;28;20043;-89
2021/04/26 12:38:27;;;;;;;4.90;4.45;;;14.10;49.10;;;;;;5087942;28;20501;-83
2021/04/26 12:40:58;;;;;;;6.53;5.38;;;14.20;41.70;;;;;;5076202;28;20037;-84
2021/04/26 12:43:40;;;;;;;7.70;5.05;;;13.90;41.80;;;;;;5088525;28;20040;-87
2021/04/26 12:46:10;;;;;;;4.03;3.63;;;14.00;46.90;;;;;;5090921;28;20040;-85
2021/04/26 12:48:38;;;;;;;7.40;4.70;;;14.10;39.60;;;;;;5082951;28;20040;-87
2021/04/26 12:51:07;;;;;;;4.40;4.03;;;13.90;41.70;;;;;;5085627;28;20036;-83
2021/04/26 12:53:36;;;;;;;6.95;5.38;;;14.00;40.60;;;;;;5084000;28;20385;-79
2021/04/26 12:56:03;;;;;;;10.57;4.80;;;13.80;46.80;;;;;;5085147;28;20059;-79
2021/04/26 12:58:40;;;;;;;8.30;5.22;;;14.20;45.40;;;;;;5081257;28;20405;-80
2021/04/26 13:01:12;;;;;;;5.53;4.63;;;14.30;44.90;;;;;;5077388;28;20048;-82
2021/04/26 13:03:41;;;;;;;9.13;5.47;;;14.20;42.30;;;;;;5063671;28;20056;-82
2021/04/26 13:06:14;;;;;;;4.95;4.03;;;13.80;42.90;;;;;;5084539;28;20046;-81
2021/04/26 13:08:44;;;;;;;10.80;5.45;;;13.70;42.60;;;;;;5087931;28;20373;-83
2021/04/26 13:11:26;;;;;;;5.10;4.70;;;13.80;43.00;;;;;;5088313;28;20047;-79
2021/04/26 13:14:00;;;;;;;11.73;5.28;;;14.00;41.40;;;;;;5080334;28;20048;-74
2021/04/26 13:16:35;;;;;;;5.75;4.25;;;13.70;42.60;;;;;;5076789;28;20489;-73
2021/04/26 13:19:06;;;;;;;6.25;4.88;;;13.70;41.10;;;;;;5085845;28;20381;-73
2021/04/26 13:21:34;;;;;;;6.00;4.82;;;13.70;41.80;;;;;;5085337;28;20071;-80
2021/04/26 13:24:18;;;;;;;6.07;4.70;;;13.80;45.20;;;;;;5078764;28;20511;-76
2021/04/26 13:26:55;;;;;;;7.80;5.47;;;13.80;41.50;;;;;;5077504;28;20056;-77
2021/04/26 13:29:24;;;;;;;4.97;4.38;;;13.70;40.20;;;;;;5087291;28;20032;-90
2021/04/26 13:31:55;;;;;;;29.02;7.22;;;13.50;40.40;;;;;;5068162;28;20051;-89
2021/04/26 13:34:27;;;;;;;5.55;4.47;;;13.60;44.30;;;;;;5067470;28;20040;-90
2021/04/26 13:37:01;;;;;;;11.27;4.15;;;13.90;41.80;;;;;;5042473;28;20409;-87
2021/04/26 13:39:28;;;;;;;12.18;5.88;;;14.20;40.50;;;;;;5037489;28;20047;-85
2021/04/26 13:41:55;;;;;;;8.30;5.28;;;14.30;39.40;;;;;;5087402;28;20396;-85
2021/04/26 13:44:24;;;;;;;5.95;5.15;;;14.30;42.40;;;;;;5109048;28;20385;-82
2021/04/26 13:46:51;;;;;;;5.60;5.20;;;14.00;41.30;;;;;;5085813;28;20056;-82
2021/04/26 13:49:19;;;;;;;4.88;4.38;;;14.00;38.40;;;;;;5074690;28;20501;-83
2021/04/26 13:51:48;;;;;;;5.38;4.93;;;14.00;40.60;;;;;;5066649;28;20032;-86